Time;durP1;ratioP1;P1;durP2;ratioP2;P2;SDS_P1;SDS_P2;PMS_P1;PMS_P2;Temp;Humidity;BMP_temperature;BMP_pressure;BME280_temperature;BME280_humidity;BME280_pressure;Samples;Min_cycle;Max_cycle;Signal;HPM_P1;HPM_P2
2022/08/26 00:00:45;;;;;;;5.45;3.13;;;28.20;55.80;;;;;;10059558;28;20175;-67
2022/08/26 00:05:36;;;;;;;3.10;2.60;;;28.20;55.90;;;;;;10061864;28;20067;-67
2022/08/26 00:10:27;;;;;;;3.95;2.95;;;28.20;56.00;;;;;;10050142;28;20128;-66
2022/08/26 00:15:20;;;;;;;4.05;2.70;;;28.10;56.20;;;;;;10065878;28;20026;-66
2022/08/26 00:20:22;;;;;;;5.30;3.70;;;28.00;56.40;;;;;;10057339;28;20080;-66
2022/08/26 00:25:14;;;;;;;4.25;2.60;;;27.90;56.70;;;;;;10040508;28;20048;-66
2022/08/26 00:30:08;;;;;;;5.65;3.17;;;27.80;56.70;;;;;;10058666;28;20569;-66
2022/08/26 00:34:59;;;;;;;5.90;3.95;;;27.80;56.60;;;;;;10059232;28;20041;-67
2022/08/26 00:39:51;;;;;;;3.63;2.63;;;27.60;57.10;;;;;;10065509;28;20489;-67
2022/08/26 00:44:41;;;;;;;4.65;2.97;;;27.50;57.10;;;;;;10057885;28;20296;-66
2022/08/26 00:49:42;;;;;;;6.22;3.55;;;27.40;57.30;;;;;;10057340;28;20048;-66
2022/08/26 00:54:37;;;;;;;4.40;2.53;;;27.50;57.30;;;;;;10052972;28;20371;-65
2022/08/26 00:59:29;;;;;;;;;;;27.40;57.60;;;;;;10041357;28;20030;-66
2022/08/26 01:04:22;;;;;;;3.25;2.78;;;27.30;57.80;;;;;;10048190;28;20256;-65
2022/08/26 01:09:12;;;;;;;6.38;2.95;;;27.40;57.50;;;;;;10060411;28;20034;-66
2022/08/26 01:14:05;;;;;;;4.85;3.15;;;27.20;57.70;;;;;;10063030;28;20025;-66
2022/08/26 01:19:34;;;;;;;4.03;2.65;;;27.00;58.00;;;;;;10058998;28;20021;-66
2022/08/26 01:24:27;;;;;;;8.45;3.17;;;27.10;58.20;;;;;;9947464;28;20037;-67
2022/08/26 01:29:19;;;;;;;3.92;2.63;;;27.10;58.30;;;;;;10055812;28;20045;-67
2022/08/26 01:34:20;;;;;;;4.78;2.90;;;27.00;58.30;;;;;;10055023;28;20029;-67
2022/08/26 01:39:11;;;;;;;5.03;2.92;;;26.90;58.50;;;;;;10061903;28;20041;-67
2022/08/26 01:44:03;;;;;;;5.68;2.92;;;26.90;58.90;;;;;;10060347;28;20476;-68
2022/08/26 01:48:57;;;;;;;5.03;3.33;;;26.90;59.00;;;;;;10058015;28;20036;-67
2022/08/26 01:53:48;;;;;;;4.18;2.92;;;26.90;59.10;;;;;;10037883;28;20057;-67
2022/08/26 01:58:43;;;;;;;6.28;3.35;;;26.90;59.20;;;;;;10053976;28;20197;-67
2022/08/26 02:04:03;;;;;;;3.83;3.08;;;26.80;59.20;;;;;;10054542;28;20051;-67
2022/08/26 02:08:58;;;;;;;4.78;3.65;;;26.60;59.80;;;;;;10010855;28;20044;-66
2022/08/26 02:13:54;;;;;;;3.70;3.13;;;26.50;60.30;;;;;;10061211;28;20013;-68
2022/08/26 02:18:45;;;;;;;4.35;3.22;;;26.50;60.50;;;;;;10051736;28;20084;-67
2022/08/26 02:23:37;;;;;;;6.10;3.05;;;26.40;60.90;;;;;;10060691;28;20119;-67
2022/08/26 02:28:34;;;;;;;5.88;3.13;;;26.10;61.00;;;;;;10039194;28;20089;-67
2022/08/26 02:33:27;;;;;;;3.92;3.05;;;25.90;61.70;;;;;;10053139;28;20021;-67
2022/08/26 02:38:18;;;;;;;5.60;3.78;;;25.70;61.80;;;;;;10042116;28;20065;-67
2022/08/26 02:43:11;;;;;;;6.60;4.70;;;25.50;62.60;;;;;;10057886;28;20588;-67
2022/08/26 02:48:11;;;;;;;5.30;3.60;;;25.50;63.00;;;;;;10056234;28;20440;-67
2022/08/26 02:53:02;;;;;;;4.43;3.40;;;25.60;63.30;;;;;;10051177;28;20388;-67
2022/08/26 02:57:53;;;;;;;5.93;3.80;;;25.40;63.60;;;;;;10053882;28;20034;-66
2022/08/26 03:02:43;;;;;;;4.20;2.70;;;25.10;64.30;;;;;;10063574;28;20025;-68
2022/08/26 03:07:34;;;;;;;2.92;2.63;;;25.30;64.60;;;;;;10051320;28;20042;-67
2022/08/26 03:12:25;;;;;;;4.15;2.70;;;25.10;64.80;;;;;;10051859;28;20032;-68
2022/08/26 03:17:15;;;;;;;3.42;2.40;;;25.30;64.80;;;;;;10041505;28;20038;-67
2022/08/26 03:22:06;;;;;;;4.03;2.75;;;24.90;65.40;;;;;;10051834;28;20028;-67
2022/08/26 03:26:57;;;;;;;4.30;2.58;;;24.70;65.90;;;;;;10064878;28;20454;-67
2022/08/26 03:31:48;;;;;;;3.22;2.42;;;24.90;66.10;;;;;;10052171;28;20049;-67
2022/08/26 03:36:39;;;;;;;4.38;2.45;;;24.80;65.90;;;;;;10055006;28;20175;-66
2022/08/26 03:41:31;;;;;;;3.47;2.67;;;24.60;66.60;;;;;;10057064;28;20030;-67
2022/08/26 03:46:22;;;;;;;4.30;2.80;;;24.30;67.50;;;;;;10038744;28;20282;-67
2022/08/26 03:51:17;;;;;;;2.95;2.38;;;24.40;67.80;;;;;;10033682;28;20224;-67
2022/08/26 03:56:08;;;;;;;2.55;2.03;;;24.40;68.00;;;;;;10051370;28;20404;-67
2022/08/26 04:00:59;;;;;;;3.25;2.50;;;24.40;68.00;;;;;;10057465;28;20068;-67
2022/08/26 04:05:51;;;;;;;5.18;2.83;;;24.50;68.10;;;;;;10054886;28;20413;-67
2022/08/26 04:10:42;;;;;;;3.63;2.63;;;24.50;68.30;;;;;;10036529;28;20036;-66
2022/08/26 04:15:33;;;;;;;4.10;2.67;;;24.30;68.70;;;;;;10059198;28;20033;-68
2022/08/26 04:20:24;;;;;;;4.70;3.10;;;24.20;69.00;;;;;;10051377;28;20021;-67
2022/08/26 04:25:15;;;;;;;4.93;2.58;;;23.90;69.50;;;;;;10067042;28;20092;-67
2022/08/26 04:30:07;;;;;;;3.90;2.55;;;23.90;69.60;;;;;;10055026;28;20041;-66
2022/08/26 04:34:58;;;;;;;4.13;2.60;;;24.10;69.40;;;;;;10058669;28;20416;-67
2022/08/26 04:39:52;;;;;;;2.78;2.25;;;24.10;69.70;;;;;;10061133;28;20022;-66
2022/08/26 04:44:42;;;;;;;3.83;2.40;;;24.10;69.80;;;;;;10062368;28;20100;-68
2022/08/26 04:49:33;;;;;;;5.45;2.83;;;24.10;69.50;;;;;;10060240;28;20037;-66
2022/08/26 04:54:24;;;;;;;4.78;2.58;;;24.30;69.70;;;;;;10057477;28;20607;-66
2022/08/26 04:59:16;;;;;;;3.35;2.70;;;24.20;69.50;;;;;;10070957;28;20400;-66
2022/08/26 05:04:07;;;;;;;2.60;2.40;;;24.20;69.80;;;;;;10078146;28;20727;-66
2022/08/26 05:08:57;;;;;;;3.45;2.60;;;24.20;69.80;;;;;;10053417;28;20174;-66
2022/08/26 05:13:48;;;;;;;4.60;2.78;;;24.20;69.80;;;;;;10062963;28;20083;-67
2022/08/26 05:18:42;;;;;;;3.78;2.58;;;24.10;70.50;;;;;;10058622;28;20022;-67
2022/08/26 05:23:35;;;;;;;4.88;2.33;;;24.00;71.00;;;;;;10042526;28;20022;-67
2022/08/26 05:28:28;;;;;;;4.22;2.53;;;23.80;71.50;;;;;;10055665;28;20100;-66
2022/08/26 05:33:19;;;;;;;4.13;3.00;;;23.90;71.30;;;;;;10054972;28;20041;-66
2022/08/26 05:38:14;;;;;;;4.07;2.50;;;24.00;71.30;;;;;;10062945;28;20037;-67
2022/08/26 05:43:09;;;;;;;5.10;2.80;;;24.20;71.30;;;;;;10054692;28;20442;-67
2022/08/26 05:47:59;;;;;;;4.22;2.88;;;24.10;71.20;;;;;;10054890;28;20045;-67
2022/08/26 05:52:50;;;;;;;3.97;2.63;;;24.20;71.30;;;;;;10033843;28;20079;-67
2022/08/26 05:57:41;;;;;;;4.07;3.15;;;24.50;71.30;;;;;;10059824;28;20021;-67
2022/08/26 06:02:32;;;;;;;6.95;2.63;;;24.70;70.80;;;;;;10037830;28;20396;-66
2022/08/26 06:08:09;;;;;;;2.83;2.53;;;24.60;70.90;;;;;;10047095;28;20033;-66
2022/08/26 06:12:33;;;;;;;3.90;2.38;;;24.70;70.70;;;;;;10049577;28;20051;-67
2022/08/26 06:17:24;;;;;;;3.35;2.55;;;24.90;70.60;;;;;;10055166;28;20562;-66
2022/08/26 06:27:25;;;;;;;4.43;2.63;;;24.70;70.90;;;;;;10041648;28;20048;-67
2022/08/26 06:32:16;;;;;;;4.50;2.78;;;24.60;70.80;;;;;;10049865;28;20045;-67
2022/08/26 06:37:07;;;;;;;3.65;2.67;;;24.80;70.90;;;;;;10060971;28;20013;-68
2022/08/26 06:41:59;;;;;;;6.57;2.70;;;24.90;70.90;;;;;;10058932;28;20024;-66
2022/08/26 06:46:50;;;;;;;4.18;3.03;;;25.10;70.50;;;;;;10048534;28;20100;-66
2022/08/26 06:51:41;;;;;;;4.93;3.15;;;25.30;70.30;;;;;;10053886;28;20113;-66
2022/08/26 06:56:35;;;;;;;4.40;2.70;;;25.30;70.50;;;;;;10053508;28;20431;-66
2022/08/26 07:01:29;;;;;;;5.15;3.03;;;25.60;70.30;;;;;;10047311;28;20043;-65
2022/08/26 07:06:20;;;;;;;5.55;3.30;;;25.70;70.00;;;;;;10057879;28;20433;-66
2022/08/26 07:11:11;;;;;;;5.88;3.10;;;25.70;70.30;;;;;;10051786;28;20046;-65
2022/08/26 07:16:07;;;;;;;5.82;3.35;;;25.90;70.00;;;;;;10059083;28;20021;-66
2022/08/26 07:21:00;;;;;;;5.60;3.22;;;25.90;69.90;;;;;;10053037;28;20454;-65
2022/08/26 07:25:51;;;;;;;4.60;3.17;;;26.00;69.80;;;;;;10064921;28;20365;-66
2022/08/26 07:30:42;;;;;;;5.38;2.70;;;26.30;69.70;;;;;;10062806;28;20466;-67
2022/08/26 07:35:32;;;;;;;5.82;3.83;;;26.30;69.50;;;;;;10060617;28;20168;-67
2022/08/26 07:40:23;;;;;;;5.18;3.25;;;26.50;69.30;;;;;;10060098;28;20029;-66
2022/08/26 07:45:14;;;;;;;5.53;3.90;;;26.60;68.90;;;;;;10056979;28;20013;-66
2022/08/26 07:50:06;;;;;;;5.07;3.28;;;26.90;68.70;;;;;;10053608;28;20132;-67
2022/08/26 07:55:00;;;;;;;6.50;3.38;;;26.80;68.50;;;;;;10043406;28;20029;-65
2022/08/26 07:59:53;;;;;;;6.35;3.40;;;27.00;68.00;;;;;;10052975;28;20032;-66
2022/08/26 08:04:43;;;;;;;10.80;4.00;;;27.00;67.70;;;;;;10058890;28;20479;-68
2022/08/26 08:09:34;;;;;;;6.97;3.72;;;27.10;67.40;;;;;;10066949;28;20124;-65
2022/08/26 08:14:24;;;;;;;5.55;3.90;;;27.30;67.00;;;;;;10065026;28;20060;-66
2022/08/26 08:19:15;;;;;;;4.38;3.08;;;27.40;66.80;;;;;;10058997;28;20108;-65
2022/08/26 08:24:06;;;;;;;6.32;3.33;;;27.40;66.60;;;;;;10066845;28;20592;-66
2022/08/26 08:28:57;;;;;;;5.90;3.60;;;27.60;66.40;;;;;;10058193;28;20045;-67
2022/08/26 08:33:47;;;;;;;4.80;3.78;;;27.50;66.10;;;;;;10067093;28;20079;-66
2022/08/26 08:38:38;;;;;;;6.63;4.53;;;27.60;66.00;;;;;;10059020;28;20389;-66
2022/08/26 08:43:39;;;;;;;6.00;3.70;;;27.70;65.70;;;;;;10062089;28;20026;-66
2022/08/26 08:48:37;;;;;;;6.07;3.80;;;27.90;65.30;;;;;;10053582;28;20397;-66
2022/08/26 08:53:38;;;;;;;7.28;3.78;;;28.00;65.20;;;;;;10047552;28;20512;-66
2022/08/26 08:58:58;;;;;;;4.00;3.40;;;28.10;65.10;;;;;;10061058;28;20033;-66
2022/08/26 09:04:11;;;;;;;6.78;4.32;;;28.30;64.70;;;;;;10049511;28;20017;-67
2022/08/26 09:09:03;;;;;;;4.45;3.53;;;28.60;64.40;;;;;;10043033;28;20589;-66
2022/08/26 09:13:55;;;;;;;5.45;3.63;;;28.60;64.20;;;;;;10067294;28;20014;-67
2022/08/26 09:18:55;;;;;;;4.85;3.42;;;28.60;64.40;;;;;;10059779;28;20043;-66
2022/08/26 09:23:46;;;;;;;5.07;4.00;;;28.70;63.90;;;;;;10060537;28;20040;-66
2022/08/26 09:28:41;;;;;;;7.30;3.50;;;28.90;63.70;;;;;;10066585;28;20045;-66
2022/08/26 09:33:32;;;;;;;5.78;3.97;;;29.10;63.40;;;;;;10058651;28;20021;-66
2022/08/26 09:38:31;;;;;;;7.18;3.90;;;29.20;63.20;;;;;;10068277;28;20111;-67
2022/08/26 09:43:22;;;;;;;4.82;3.70;;;29.40;62.70;;;;;;10060369;28;20025;-66
2022/08/26 09:48:25;;;;;;;5.78;3.60;;;29.50;62.80;;;;;;10036460;28;20420;-67
2022/08/26 09:53:24;;;;;;;6.95;3.70;;;29.40;62.50;;;;;;10054801;28;20061;-65
2022/08/26 09:58:32;;;;;;;8.07;4.65;;;29.60;62.10;;;;;;10044012;28;20025;-67
2022/08/26 10:03:29;;;;;;;6.45;3.67;;;29.80;61.50;;;;;;10046207;28;20092;-66
2022/08/26 10:08:21;;;;;;;6.20;4.20;;;29.80;61.50;;;;;;10051432;28;20045;-66
2022/08/26 10:13:22;;;;;;;6.30;3.88;;;30.00;61.30;;;;;;10069253;28;20021;-66
2022/08/26 10:18:23;;;;;;;6.32;4.57;;;30.10;60.80;;;;;;10047627;28;20056;-66
2022/08/26 10:23:22;;;;;;;5.25;3.78;;;30.10;60.70;;;;;;10058613;28;20025;-66
2022/08/26 10:28:42;;;;;;;7.03;3.58;;;30.20;60.20;;;;;;10059701;28;20053;-66
2022/08/26 10:33:33;;;;;;;4.10;3.60;;;30.30;60.00;;;;;;10052786;28;20511;-66
2022/08/26 10:38:33;;;;;;;4.45;3.67;;;30.40;59.90;;;;;;10042701;28;20048;-66
2022/08/26 10:43:40;;;;;;;4.53;3.33;;;30.50;59.60;;;;;;10059792;28;20037;-67
2022/08/26 10:48:30;;;;;;;7.88;4.80;;;30.70;59.50;;;;;;10049252;28;20033;-67
2022/08/26 10:53:30;;;;;;;5.18;3.70;;;30.90;59.50;;;;;;10053159;28;20036;-67
2022/08/26 10:58:54;;;;;;;4.32;3.15;;;31.10;59.00;;;;;;10053591;28;20100;-66
2022/08/26 11:04:03;;;;;;;4.80;3.28;;;31.20;58.90;;;;;;10051757;28;20555;-66
2022/08/26 11:09:07;;;;;;;4.85;4.03;;;31.00;58.70;;;;;;10045468;28;20033;-67
2022/08/26 11:14:01;;;;;;;4.55;3.40;;;31.20;58.40;;;;;;10057966;28;20030;-67
2022/08/26 11:18:54;;;;;;;6.00;4.07;;;31.30;58.30;;;;;;10055176;28;20052;-67
2022/08/26 11:23:46;;;;;;;3.50;3.08;;;31.20;57.80;;;;;;10062639;28;20025;-66
2022/08/26 11:28:47;;;;;;;3.97;3.53;;;31.50;57.50;;;;;;10049033;28;20144;-67
2022/08/26 11:33:51;;;;;;;6.07;2.67;;;31.90;56.80;;;;;;10057904;28;20360;-66
2022/08/26 11:38:43;;;;;;;4.53;3.65;;;31.50;56.80;;;;;;10071771;28;20380;-66
2022/08/26 11:43:37;;;;;;;6.65;3.20;;;31.20;57.10;;;;;;10061241;28;20020;-66
2022/08/26 11:48:28;;;;;;;;;;;31.20;57.00;;;;;;10064265;28;20601;-66
2022/08/26 11:53:19;;;;;;;4.03;3.55;;;31.30;56.70;;;;;;10059812;28;19916;-66
2022/08/26 11:58:13;;;;;;;4.43;3.80;;;31.40;56.70;;;;;;10061794;28;20455;-66
2022/08/26 12:03:06;;;;;;;6.95;3.90;;;31.70;56.40;;;;;;10064077;28;20060;-67
2022/08/26 12:08:04;;;;;;;5.03;3.58;;;31.80;56.20;;;;;;10060212;28;20040;-66
2022/08/26 12:12:57;;;;;;;6.38;3.67;;;31.80;56.20;;;;;;10060077;28;20112;-67
2022/08/26 12:17:49;;;;;;;4.90;3.70;;;32.00;56.10;;;;;;10061342;28;20033;-67
2022/08/26 12:22:42;;;;;;;6.60;4.07;;;32.10;55.60;;;;;;10057551;28;20041;-66
2022/08/26 12:27:40;;;;;;;4.28;3.88;;;32.30;55.60;;;;;;10047400;28;20055;-67
2022/08/26 12:32:31;;;;;;;7.85;4.07;;;32.40;55.40;;;;;;10046200;28;20036;-66
2022/08/26 12:37:22;;;;;;;4.40;3.65;;;32.60;55.40;;;;;;10063727;28;20117;-66
2022/08/26 12:42:14;;;;;;;5.65;3.80;;;32.90;55.40;;;;;;10063377;28;20033;-66
2022/08/26 12:47:08;;;;;;;7.53;4.07;;;32.80;55.50;;;;;;10062204;28;20021;-66
2022/08/26 12:51:59;;;;;;;4.03;3.63;;;32.90;55.80;;;;;;10062420;28;20395;-65
2022/08/26 12:56:50;;;;;;;9.45;4.75;;;33.10;55.60;;;;;;10061749;28;20036;-66
2022/08/26 13:01:43;;;;;;;3.97;3.55;;;33.10;55.70;;;;;;10057776;28;20080;-66
2022/08/26 13:06:34;;;;;;;5.03;3.80;;;33.10;55.40;;;;;;10074160;28;20036;-67
2022/08/26 13:11:44;;;;;;;7.50;5.45;;;33.60;55.60;;;;;;10057214;28;20432;-66
2022/08/26 13:16:37;;;;;;;5.82;5.30;;;33.70;55.00;;;;;;10042657;28;20055;-67
2022/08/26 13:21:32;;;;;;;6.93;4.25;;;33.90;55.00;;;;;;10057945;28;20022;-66
2022/08/26 13:26:23;;;;;;;8.93;6.25;;;34.30;54.40;;;;;;10066985;28;20017;-66
2022/08/26 13:31:14;;;;;;;6.63;5.63;;;34.80;53.60;;;;;;10058684;28;20056;-65
2022/08/26 13:36:06;;;;;;;8.57;5.33;;;34.50;53.30;;;;;;10050185;28;20025;-66
2022/08/26 13:41:01;;;;;;;8.38;5.68;;;32.80;54.50;;;;;;10063923;28;20037;-67
2022/08/26 13:45:52;;;;;;;19.90;6.35;;;31.60;55.70;;;;;;10042643;28;20032;-67
2022/08/26 13:50:43;;;;;;;8.57;6.00;;;31.10;56.30;;;;;;10033976;28;20077;-68
2022/08/26 13:55:34;;;;;;;8.45;6.88;;;30.60;57.90;;;;;;10052573;28;20013;-67
2022/08/26 14:00:24;;;;;;;7.38;6.57;;;30.30;58.10;;;;;;10058895;28;20037;-67
2022/08/26 14:05:15;;;;;;;7.72;6.90;;;30.10;58.80;;;;;;10053230;28;20025;-67
2022/08/26 14:10:06;;;;;;;7.35;6.10;;;29.80;59.50;;;;;;10063094;28;20037;-66
2022/08/26 14:14:57;;;;;;;7.05;6.30;;;29.70;59.90;;;;;;10068249;28;20024;-66
2022/08/26 14:19:49;;;;;;;8.48;6.32;;;29.40;60.50;;;;;;10057129;28;20395;-66
2022/08/26 14:24:40;;;;;;;9.40;7.43;;;29.60;60.60;;;;;;10056298;28;20515;-66
2022/08/26 14:29:30;;;;;;;9.98;5.78;;;29.50;60.70;;;;;;10052728;28;20058;-66
2022/08/26 14:34:21;;;;;;;8.65;5.93;;;29.70;60.60;;;;;;10040783;28;20021;-66
2022/08/26 14:39:13;;;;;;;7.68;6.88;;;29.60;60.80;;;;;;10063705;28;20040;-67
2022/08/26 14:44:09;;;;;;;8.82;6.43;;;29.40;61.30;;;;;;10040092;28;20041;-66
2022/08/26 14:49:01;;;;;;;7.78;6.28;;;29.30;61.60;;;;;;10053142;28;20088;-66
2022/08/26 14:59:01;;;;;;;8.43;6.28;;;30.40;61.00;;;;;;10060358;28;20059;-66
2022/08/26 15:03:52;;;;;;;8.18;5.97;;;32.30;59.10;;;;;;10052209;28;20544;-66
2022/08/26 15:08:42;;;;;;;6.95;5.90;;;34.60;57.00;;;;;;10056301;28;20046;-67
2022/08/26 15:13:34;;;;;;;5.50;4.80;;;35.70;55.80;;;;;;10052934;28;20303;-67
2022/08/26 15:18:25;;;;;;;6.22;5.32;;;35.70;55.30;;;;;;10064114;28;20049;-66
2022/08/26 15:23:15;;;;;;;5.00;4.37;;;36.20;54.20;;;;;;10038714;28;20388;-66
2022/08/26 15:28:06;;;;;;;6.40;5.20;;;36.20;54.00;;;;;;10075598;28;20045;-65
2022/08/26 15:32:57;;;;;;;7.13;5.57;;;35.80;53.50;;;;;;10051562;28;20160;-65
2022/08/26 15:37:47;;;;;;;12.43;5.72;;;34.90;54.10;;;;;;10042924;28;20562;-65
2022/08/26 15:42:38;;;;;;;7.00;6.25;;;33.90;54.80;;;;;;10045690;28;20033;-66
2022/08/26 15:47:29;;;;;;;6.25;5.35;;;34.00;54.90;;;;;;10051691;28;20021;-64
2022/08/26 15:52:20;;;;;;;7.07;5.82;;;34.00;54.80;;;;;;10051708;28;20087;-66
2022/08/26 15:57:11;;;;;;;9.57;5.55;;;34.30;54.50;;;;;;10047142;28;20025;-66
2022/08/26 16:02:01;;;;;;;8.27;5.90;;;34.40;55.00;;;;;;10036062;28;20028;-67
2022/08/26 16:06:53;;;;;;;8.10;5.63;;;34.10;54.60;;;;;;10066390;28;20104;-66
2022/08/26 16:11:44;;;;;;;12.93;5.90;;;33.70;55.20;;;;;;10052504;28;20446;-66
2022/08/26 16:16:39;;;;;;;5.72;4.55;;;34.30;55.10;;;;;;10062975;28;20035;-66
2022/08/26 16:21:29;;;;;;;5.25;4.65;;;35.50;53.70;;;;;;10058025;28;20085;-66
2022/08/26 16:26:27;;;;;;;5.47;4.88;;;35.60;53.30;;;;;;10057860;28;20553;-66
2022/08/26 16:31:17;;;;;;;7.07;4.75;;;36.00;52.60;;;;;;10067292;28;20432;-66
2022/08/26 16:36:09;;;;;;;8.10;4.78;;;34.90;53.60;;;;;;10056695;28;20022;-67
2022/08/26 16:41:00;;;;;;;7.72;4.47;;;34.40;54.40;;;;;;10066141;28;20021;-66
2022/08/26 16:45:51;;;;;;;7.43;4.57;;;33.30;55.30;;;;;;10057974;28;20021;-66
2022/08/26 16:50:41;;;;;;;4.35;3.95;;;33.40;55.50;;;;;;10064106;28;20045;-66
2022/08/26 16:55:33;;;;;;;6.65;5.43;;;33.00;55.90;;;;;;10040020;28;20010;-66
2022/08/26 17:00:27;;;;;;;7.32;4.88;;;34.20;55.30;;;;;;10057612;28;20458;-67
2022/08/26 17:05:19;;;;;;;6.22;4.97;;;34.70;54.30;;;;;;10063712;28;20582;-67
2022/08/26 17:10:09;;;;;;;5.30;4.57;;;34.70;54.30;;;;;;10062835;28;20447;-66
2022/08/26 17:15:00;;;;;;;5.65;4.07;;;34.40;54.70;;;;;;10067165;28;20013;-67
2022/08/26 17:19:51;;;;;;;6.03;4.00;;;34.30;55.00;;;;;;10049578;28;20502;-65
2022/08/26 17:24:42;;;;;;;6.80;5.22;;;33.20;55.50;;;;;;10055876;28;20029;-66
2022/08/26 17:29:33;;;;;;;5.03;4.47;;;31.40;58.00;;;;;;10055338;28;20053;-67
2022/08/26 17:34:24;;;;;;;6.38;4.75;;;30.20;60.50;;;;;;10055708;28;20542;-66
2022/08/26 17:39:15;;;;;;;7.47;5.68;;;29.50;60.90;;;;;;10063712;28;20033;-67
2022/08/26 17:44:06;;;;;;;8.57;4.50;;;29.30;61.10;;;;;;10054155;28;20034;-68
2022/08/26 17:48:57;;;;;;;7.85;5.05;;;29.00;61.90;;;;;;10050769;28;20032;-67
2022/08/26 17:53:48;;;;;;;10.30;6.10;;;28.70;62.50;;;;;;10050826;28;20404;-66
2022/08/26 17:58:39;;;;;;;6.40;5.72;;;28.80;62.60;;;;;;10048675;28;20734;-66
2022/08/26 18:03:30;;;;;;;7.03;4.65;;;28.60;62.90;;;;;;10043713;28;20392;-68
2022/08/26 18:08:21;;;;;;;10.35;5.20;;;28.50;63.30;;;;;;10060448;28;20188;-67
2022/08/26 18:13:13;;;;;;;7.07;5.57;;;28.40;63.30;;;;;;10058678;28;20138;-66
2022/08/26 18:18:04;;;;;;;6.07;5.28;;;28.40;63.80;;;;;;10058016;28;20057;-66
2022/08/26 18:22:55;;;;;;;5.15;4.25;;;28.20;64.20;;;;;;10054378;28;20358;-67
2022/08/26 18:27:46;;;;;;;9.27;5.22;;;28.20;64.40;;;;;;10059296;28;20046;-66
2022/08/26 18:32:36;;;;;;;9.02;4.70;;;28.10;64.50;;;;;;10049501;28;20112;-66
2022/08/26 18:37:27;;;;;;;7.38;5.05;;;27.80;65.20;;;;;;10062958;28;20442;-66
2022/08/26 18:42:18;;;;;;;5.22;4.38;;;27.50;65.80;;;;;;10067936;28;20037;-67
2022/08/26 18:47:08;;;;;;;8.82;5.20;;;27.60;65.80;;;;;;10056900;28;20037;-67
2022/08/26 18:51:59;;;;;;;6.80;4.97;;;27.60;66.30;;;;;;10052786;28;20045;-67
2022/08/26 18:56:50;;;;;;;5.57;3.80;;;27.50;66.40;;;;;;10055212;28;20025;-67
2022/08/26 19:01:41;;;;;;;3.13;2.30;;;27.50;66.60;;;;;;10058297;28;20036;-67
2022/08/26 19:06:34;;;;;;;2.97;2.45;;;27.60;65.00;;;;;;10042446;28;20028;-66
2022/08/26 19:11:25;;;;;;;3.58;2.88;;;27.50;63.50;;;;;;10055462;28;20076;-65
2022/08/26 19:16:22;;;;;;;3.90;3.25;;;27.40;62.70;;;;;;10061074;28;20030;-66
2022/08/26 19:21:13;;;;;;;6.50;3.30;;;27.20;62.30;;;;;;10051843;28;20073;-66
2022/08/26 19:26:05;;;;;;;4.05;3.20;;;27.00;62.60;;;;;;10047596;28;20022;-66
2022/08/26 19:30:56;;;;;;;10.50;4.18;;;27.00;62.70;;;;;;10050945;28;20057;-66
2022/08/26 19:35:46;;;;;;;4.80;3.10;;;26.80;63.30;;;;;;10051710;28;20028;-65
2022/08/26 19:40:38;;;;;;;5.80;3.72;;;26.70;64.10;;;;;;10069247;28;20375;-66
2022/08/26 19:45:29;;;;;;;4.55;3.28;;;26.70;64.60;;;;;;10051344;28;20021;-65
2022/08/26 19:50:20;;;;;;;3.67;3.28;;;26.70;64.70;;;;;;10058520;28;20428;-66
2022/08/26 19:55:15;;;;;;;4.05;3.15;;;26.80;64.50;;;;;;10056377;28;20022;-65
2022/08/26 20:00:10;;;;;;;4.20;2.90;;;27.00;63.90;;;;;;10064503;28;20030;-66
2022/08/26 20:05:02;;;;;;;;;;;27.10;64.40;;;;;;10044016;28;20185;-66
2022/08/26 20:09:52;;;;;;;4.85;3.65;;;27.00;63.90;;;;;;10056803;28;19924;-66
2022/08/26 20:14:43;;;;;;;5.05;3.67;;;27.10;63.60;;;;;;10069562;28;20394;-66
2022/08/26 20:24:45;;;;;;;4.53;3.60;;;27.10;64.00;;;;;;10062036;28;20485;-66
2022/08/26 20:29:36;;;;;;;4.53;3.40;;;27.00;64.00;;;;;;10066780;28;20080;-66
2022/08/26 20:34:27;;;;;;;6.35;3.72;;;27.00;63.80;;;;;;10057256;28;20029;-65
2022/08/26 20:39:20;;;;;;;4.70;3.80;;;26.80;64.30;;;;;;10062279;28;20486;-66
2022/08/26 20:44:12;;;;;;;6.68;3.22;;;26.90;64.40;;;;;;10057499;28;20026;-65
2022/08/26 20:49:04;;;;;;;5.90;3.60;;;26.70;64.80;;;;;;10063066;28;20574;-66
2022/08/26 20:53:54;;;;;;;5.00;4.43;;;26.70;64.80;;;;;;10056535;28;20041;-66
2022/08/26 20:58:45;;;;;;;6.75;4.60;;;26.40;65.20;;;;;;10057098;28;20511;-66
2022/08/26 21:03:36;;;;;;;5.40;3.75;;;26.30;66.00;;;;;;10069191;28;20025;-67
2022/08/26 21:08:26;;;;;;;7.55;4.10;;;26.30;66.40;;;;;;10062369;28;20476;-65
2022/08/26 21:13:17;;;;;;;5.80;4.32;;;26.10;66.90;;;;;;10064145;28;20040;-65
2022/08/26 21:18:08;;;;;;;7.65;4.60;;;26.10;67.80;;;;;;10059090;28;20021;-66
2022/08/26 21:22:59;;;;;;;6.90;4.10;;;26.10;68.20;;;;;;10057801;28;20426;-67
2022/08/26 21:27:49;;;;;;;9.75;5.50;;;25.70;69.30;;;;;;10057948;28;20476;-66
2022/08/26 21:32:40;;;;;;;9.57;5.68;;;25.80;70.10;;;;;;10052817;28;20025;-67
2022/08/26 21:37:30;;;;;;;12.60;7.13;;;25.80;70.40;;;;;;10064441;28;20503;-67
2022/08/26 21:42:23;;;;;;;10.23;6.88;;;25.50;71.20;;;;;;10055374;28;20053;-66
2022/08/26 21:47:14;;;;;;;10.77;7.68;;;25.50;71.70;;;;;;10060453;28;20559;-65
2022/08/26 21:52:04;;;;;;;11.07;6.72;;;25.50;71.90;;;;;;10055612;28;20095;-66
2022/08/26 21:56:55;;;;;;;9.52;5.25;;;25.40;72.60;;;;;;10055960;28;20099;-66
2022/08/26 22:01:46;;;;;;;12.73;6.57;;;25.40;73.00;;;;;;10016978;28;20044;-66
2022/08/26 22:06:45;;;;;;;11.23;6.78;;;25.30;73.30;;;;;;10061860;28;20024;-66
2022/08/26 22:11:36;;;;;;;13.23;7.28;;;25.40;73.40;;;;;;10054440;28;20075;-66
2022/08/26 22:16:27;;;;;;;10.10;6.70;;;25.30;73.60;;;;;;10061246;28;20454;-67
2022/08/26 22:21:22;;;;;;;7.55;5.90;;;25.40;74.30;;;;;;10053480;28;20548;-66
2022/08/26 22:26:16;;;;;;;9.82;6.97;;;25.50;73.90;;;;;;10038327;28;20037;-66
2022/08/26 22:31:08;;;;;;;9.30;6.63;;;25.70;73.70;;;;;;10054907;28;20029;-66
2022/08/26 22:35:59;;;;;;;10.88;6.20;;;25.70;73.70;;;;;;10063099;28;20024;-66
2022/08/26 22:40:55;;;;;;;6.55;5.07;;;25.50;74.10;;;;;;10061428;28;20563;-65
2022/08/26 22:45:48;;;;;;;9.32;5.32;;;25.20;75.10;;;;;;10049355;28;20052;-66
2022/08/26 22:50:39;;;;;;;7.22;4.50;;;25.30;75.20;;;;;;10052409;28;20504;-66
2022/08/26 22:55:29;;;;;;;6.88;4.80;;;25.10;75.50;;;;;;10037477;28;20100;-65
2022/08/26 23:00:20;;;;;;;9.02;4.78;;;24.80;76.30;;;;;;10028780;28;20535;-67
2022/08/26 23:05:11;;;;;;;6.07;4.28;;;24.70;76.80;;;;;;10051088;28;20030;-66
2022/08/26 23:10:05;;;;;;;8.65;5.93;;;24.90;76.60;;;;;;10057518;28;20571;-67
2022/08/26 23:14:56;;;;;;;6.97;4.87;;;25.10;76.50;;;;;;10063811;28;20670;-67
2022/08/26 23:19:46;;;;;;;10.13;5.20;;;25.30;76.10;;;;;;10052924;28;20113;-66
2022/08/26 23:24:37;;;;;;;13.57;5.80;;;25.10;76.40;;;;;;10048565;28;20079;-66
2022/08/26 23:29:28;;;;;;;10.52;6.57;;;25.00;76.60;;;;;;10051028;28;20420;-66
2022/08/26 23:39:30;;;;;;;8.52;6.78;;;25.00;76.70;;;;;;10053180;28;20354;-65
2022/08/26 23:44:21;;;;;;;9.63;6.32;;;25.10;76.90;;;;;;10050918;28;20033;-65
2022/08/26 23:49:12;;;;;;;10.38;6.35;;;25.00;76.90;;;;;;10051083;28;20712;-65
2022/08/26 23:54:02;;;;;;;14.45;8.88;;;25.00;77.00;;;;;;10053298;28;20022;-66
2022/08/26 23:58:54;;;;;;;11.40;8.05;;;24.90;77.50;;;;;;10051395;28;20030;-67
